Time;durP1;ratioP1;P1;durP2;ratioP2;P2;SDS_P1;SDS_P2;PMS_P1;PMS_P2;Temp;Humidity;BMP_temperature;BMP_pressure;BME280_temperature;BME280_humidity;BME280_pressure;Samples;Min_cycle;Max_cycle;Signal;HPM_P1;HPM_P2
2023/12/24 00:03:47;;;;;;;4.50;2.15;;;;;;;8.72;100.00;100497.06;10492674;28;20043;-79
2023/12/24 00:08:49;;;;;;;11.35;3.63;;;;;;;8.72;100.00;100500.56;10468450;28;20128;-78
2023/12/24 00:13:49;;;;;;;9.07;1.90;;;;;;;8.76;100.00;100497.28;10503296;28;20476;-78
2023/12/24 00:18:50;;;;;;;3.97;2.20;;;;;;;8.75;100.00;100495.47;10478787;28;20131;-78
2023/12/24 00:23:50;;;;;;;5.68;2.03;;;;;;;8.79;100.00;100499.16;10478054;28;20087;-78
2023/12/24 00:28:51;;;;;;;5.78;1.90;;;;;;;8.78;100.00;100493.03;10489528;28;20131;-78
2023/12/24 00:33:51;;;;;;;3.92;1.95;;;;;;;8.77;100.00;100490.34;10471213;28;20112;-77
2023/12/24 00:38:52;;;;;;;4.50;1.77;;;;;;;8.73;100.00;100512.78;10432645;28;20123;-78
2023/12/24 00:43:52;;;;;;;3.33;1.73;;;;;;;8.71;100.00;100518.75;10493001;28;20141;-79
2023/12/24 00:48:53;;;;;;;3.33;1.67;;;;;;;8.69;100.00;100516.06;10487015;28;20124;-78
2023/12/24 00:53:53;;;;;;;4.03;1.55;;;;;;;8.73;100.00;100498.84;10473703;28;20030;-78
2023/12/24 00:58:54;;;;;;;3.20;1.48;;;;;;;8.75;100.00;100505.91;10477619;28;20135;-78
2023/12/24 01:03:54;;;;;;;6.50;2.78;;;;;;;8.80;100.00;100509.66;10501696;28;20383;-78
2023/12/24 01:08:55;;;;;;;10.50;2.10;;;;;;;8.80;100.00;100482.69;10490777;28;20067;-78
2023/12/24 01:13:55;;;;;;;3.00;1.55;;;;;;;8.81;100.00;100474.03;10497961;28;20064;-79
2023/12/24 01:18:56;;;;;;;6.03;1.83;;;;;;;8.77;100.00;100464.25;10498063;28;20128;-79
2023/12/24 01:23:56;;;;;;;4.82;2.03;;;;;;;8.73;100.00;100450.16;10474504;28;20120;-82
2023/12/24 01:28:57;;;;;;;5.18;1.35;;;;;;;8.74;100.00;100412.81;10457877;28;20045;-78
2023/12/24 01:33:57;;;;;;;7.07;1.60;;;;;;;8.68;100.00;100385.53;10459025;28;20056;-79
2023/12/24 01:38:58;;;;;;;5.78;1.60;;;;;;;8.70;100.00;100374.34;10447818;28;20520;-79
2023/12/24 01:43:58;;;;;;;5.82;1.98;;;;;;;8.78;100.00;100374.72;10459012;28;20127;-78
2023/12/24 01:48:59;;;;;;;2.92;1.33;;;;;;;8.78;100.00;100386.03;10441621;28;20131;-78
2023/12/24 01:53:59;;;;;;;1.80;0.73;;;;;;;8.78;100.00;100400.81;10508619;28;20050;-78
2023/12/24 01:59:00;;;;;;;4.38;1.88;;;;;;;8.81;100.00;100400.97;10505898;28;20120;-78
2023/12/24 02:04:00;;;;;;;2.20;0.50;;;;;;;8.82;100.00;100405.34;10501685;28;20127;-78
2023/12/24 02:09:01;;;;;;;5.10;1.48;;;;;;;8.77;100.00;100406.84;10490892;28;20216;-78
2023/12/24 02:14:02;;;;;;;6.43;1.52;;;;;;;8.70;100.00;100416.09;10495227;28;20060;-78
2023/12/24 02:19:03;;;;;;;2.67;1.70;;;;;;;8.58;100.00;100424.22;10489698;28;20041;-78
2023/12/24 02:24:04;;;;;;;2.15;1.30;;;;;;;8.31;100.00;100428.94;10487886;28;20053;-78
2023/12/24 02:29:13;;;;;;;4.32;1.85;;;;;;;8.12;100.00;100443.66;10491833;28;20036;-77
2023/12/24 02:34:16;;;;;;;7.47;2.63;;;;;;;8.00;100.00;100443.94;10463817;28;20102;-77
2023/12/24 02:39:17;;;;;;;3.75;1.58;;;;;;;7.94;100.00;100454.94;10456205;28;20041;-78
2023/12/24 02:44:17;;;;;;;4.60;2.17;;;;;;;7.93;100.00;100453.13;10487894;28;20493;-78
2023/12/24 02:49:18;;;;;;;8.85;3.25;;;;;;;7.93;100.00;100468.78;10482917;28;20119;-78
2023/12/24 02:54:19;;;;;;;4.50;2.22;;;;;;;7.88;100.00;100465.03;10480395;28;20056;-78
2023/12/24 02:59:19;;;;;;;5.95;1.90;;;;;;;7.83;100.00;100458.69;10483747;28;20044;-78
2023/12/24 03:04:20;;;;;;;3.78;2.03;;;;;;;7.77;100.00;100455.75;10498668;28;20463;-78
2023/12/24 03:09:20;;;;;;;6.38;1.90;;;;;;;7.78;100.00;100442.84;10496359;28;20437;-78
2023/12/24 03:14:21;;;;;;;4.18;2.15;;;;;;;7.81;100.00;100436.88;10500842;27;20123;-77
2023/12/24 03:19:21;;;;;;;3.35;1.45;;;;;;;7.81;100.00;100428.19;10490456;28;20040;-77
2023/12/24 03:24:22;;;;;;;5.75;2.20;;;;;;;7.86;100.00;100424.97;10487496;28;20122;-77
2023/12/24 03:29:22;;;;;;;8.30;1.50;;;;;;;7.86;100.00;100422.38;10497154;27;20570;-78
2023/12/24 03:34:23;;;;;;;4.40;1.48;;;;;;;7.86;100.00;100424.09;10483760;28;20048;-78
2023/12/24 03:39:23;;;;;;;2.90;1.98;;;;;;;7.89;100.00;100414.72;10499093;28;20441;-77
2023/12/24 03:44:24;;;;;;;1.10;0.65;;;;;;;7.91;100.00;100412.19;10498584;28;20103;-77
2023/12/24 03:49:24;;;;;;;1.63;1.02;;;;;;;7.92;100.00;100400.97;10506295;27;20111;-77
2023/12/24 03:54:25;;;;;;;1.48;0.60;;;;;;;7.94;100.00;100381.09;10481737;28;20567;-77
2023/12/24 03:59:25;;;;;;;1.63;1.10;;;;;;;7.89;100.00;100388.66;10497077;28;20129;-78
2023/12/24 04:04:26;;;;;;;2.33;1.00;;;;;;;7.87;100.00;100394.63;10511947;28;20122;-78
2023/12/24 04:09:28;;;;;;;2.95;0.65;;;;;;;7.87;100.00;100381.59;10445472;28;20128;-79
2023/12/24 04:14:29;;;;;;;0.65;0.40;;;;;;;7.87;100.00;100355.53;10435013;28;20044;-78
2023/12/24 04:19:29;;;;;;;1.27;0.50;;;;;;;7.87;100.00;100353.81;10445491;28;20369;-77
2023/12/24 04:24:30;;;;;;;1.55;0.55;;;;;;;7.85;100.00;100355.44;10435541;28;20045;-77
2023/12/24 04:29:31;;;;;;;0.35;0.32;;;;;;;7.87;100.00;100363.34;10448287;28;20036;-77
2023/12/24 04:34:31;;;;;;;0.80;0.35;;;;;;;7.86;100.00;100367.66;10494282;28;20071;-78
2023/12/24 04:39:32;;;;;;;3.83;1.17;;;;;;;7.88;100.00;100350.38;10486370;28;20089;-78
2023/12/24 04:44:32;;;;;;;3.20;2.00;;;;;;;7.89;100.00;100359.13;10501600;28;20062;-78
2023/12/24 04:49:33;;;;;;;2.05;0.68;;;;;;;7.87;100.00;100346.00;10487289;28;20058;-81
2023/12/24 04:54:33;;;;;;;2.88;0.98;;;;;;;7.87;100.00;100338.19;10431339;28;20134;-77
2023/12/24 04:59:34;;;;;;;1.65;0.60;;;;;;;7.91;100.00;100340.13;10483578;27;20055;-76
2023/12/24 05:04:35;;;;;;;0.85;0.65;;;;;;;7.90;100.00;100334.84;10509670;28;20222;-77
2023/12/24 05:09:35;;;;;;;4.78;1.20;;;;;;;7.91;100.00;100334.03;10479407;28;20491;-77
2023/12/24 05:14:36;;;;;;;0.77;0.60;;;;;;;7.93;100.00;100337.59;10482310;28;20082;-77
2023/12/24 05:19:36;;;;;;;1.20;0.47;;;;;;;7.92;100.00;100333.22;10496777;28;20440;-77
2023/12/24 05:24:37;;;;;;;1.48;1.05;;;;;;;7.91;100.00;100331.44;10494886;28;20044;-76
2023/12/24 05:29:37;;;;;;;2.53;1.15;;;;;;;7.89;100.00;100336.53;10484149;28;20124;-77
2023/12/24 05:34:37;;;;;;;0.80;0.60;;;;;;;7.91;100.00;100332.31;10421774;28;20145;-76
2023/12/24 05:39:42;;;;;;;2.08;0.52;;;;;;;7.90;100.00;100324.44;10429912;28;20742;-76
2023/12/24 05:44:42;;;;;;;0.55;0.45;;;;;;;7.94;100.00;100326.38;10483869;28;20048;-76
2023/12/24 05:49:43;;;;;;;1.52;0.90;;;;;;;7.94;100.00;100321.16;10506296;28;20067;-76
2023/12/24 05:54:43;;;;;;;1.10;0.50;;;;;;;7.96;100.00;100331.63;10510253;28;20345;-79
2023/12/24 05:59:44;;;;;;;2.65;0.55;;;;;;;7.92;100.00;100328.00;10475796;28;20119;-80
2023/12/24 06:04:44;;;;;;;0.43;0.32;;;;;;;7.92;100.00;100328.88;10507035;28;20115;-78
2023/12/24 06:09:45;;;;;;;1.35;0.63;;;;;;;7.95;100.00;100322.94;10508645;28;20040;-80
2023/12/24 06:14:45;;;;;;;0.75;0.50;;;;;;;7.93;100.00;100325.44;10504086;28;20036;-78
2023/12/24 06:19:46;;;;;;;1.40;0.65;;;;;;;7.94;100.00;100324.63;10426381;28;20036;-80
2023/12/24 06:24:46;;;;;;;1.35;0.60;;;;;;;7.98;100.00;100324.78;10409443;28;20048;-81
2023/12/24 06:29:48;;;;;;;1.13;0.85;;;;;;;7.98;100.00;100328.31;10494903;28;20040;-81
2023/12/24 06:34:48;;;;;;;1.10;0.52;;;;;;;8.03;100.00;100320.69;10502189;28;20602;-81
2023/12/24 06:39:49;;;;;;;2.92;0.63;;;;;;;8.03;100.00;100311.19;10473746;28;20076;-81
2023/12/24 06:44:49;;;;;;;0.80;0.50;;;;;;;8.05;100.00;100308.63;10512264;28;20036;-79
2023/12/24 06:49:50;;;;;;;0.50;0.43;;;;;;;8.05;100.00;100309.53;10503192;28;20123;-79
2023/12/24 06:54:51;;;;;;;1.55;0.50;;;;;;;8.06;100.00;100297.38;10482689;28;20148;-78
2023/12/24 06:59:51;;;;;;;1.48;0.73;;;;;;;8.08;100.00;100299.28;10517915;28;20036;-78
2023/12/24 07:04:52;;;;;;;0.75;0.50;;;;;;;8.12;100.00;100300.28;10473200;28;20186;-80
2023/12/24 07:09:53;;;;;;;1.40;0.82;;;;;;;8.11;100.00;100298.50;10428223;28;20427;-80
2023/12/24 07:14:53;;;;;;;1.55;0.82;;;;;;;8.17;100.00;100292.72;10445485;28;20045;-79
2023/12/24 07:19:54;;;;;;;2.15;0.73;;;;;;;8.15;100.00;100292.63;10463260;28;20045;-79
2023/12/24 07:24:54;;;;;;;1.00;0.82;;;;;;;8.13;100.00;100286.44;10476580;28;20175;-78
2023/12/24 07:29:56;;;;;;;1.65;0.70;;;;;;;8.18;100.00;100294.50;10476677;28;20071;-80
2023/12/24 07:34:57;;;;;;;2.53;1.35;;;;;;;8.15;100.00;100295.22;10485265;28;20056;-80
2023/12/24 07:39:57;;;;;;;1.23;0.65;;;;;;;8.17;100.00;100301.41;10475429;28;20488;-80
2023/12/24 07:44:58;;;;;;;2.25;0.90;;;;;;;8.18;100.00;100289.28;10489510;28;20186;-80
2023/12/24 07:49:58;;;;;;;1.60;1.15;;;;;;;8.20;100.00;100291.13;10505177;28;20136;-79
2023/12/24 07:54:59;;;;;;;0.90;0.68;;;;;;;8.20;100.00;100304.16;10500424;28;20056;-80
2023/12/24 07:59:59;;;;;;;1.55;0.93;;;;;;;8.19;100.00;100296.28;10492113;28;20051;-78
2023/12/24 08:05:03;;;;;;;1.35;0.57;;;;;;;8.22;100.00;100293.81;10451184;28;20069;-79
2023/12/24 08:10:04;;;;;;;1.00;0.90;;;;;;;8.25;100.00;100293.06;10473703;28;20032;-79
2023/12/24 08:15:06;;;;;;;1.90;1.00;;;;;;;8.26;100.00;100294.84;10493910;28;20045;-79
2023/12/24 08:20:07;;;;;;;1.90;1.25;;;;;;;8.23;100.00;100299.09;10478660;28;20039;-77
2023/12/24 08:25:08;;;;;;;1.30;0.90;;;;;;;8.25;100.00;100296.59;10486811;28;20040;-78
2023/12/24 08:30:09;;;;;;;1.05;0.90;;;;;;;8.31;100.00;100294.25;10489276;28;20591;-77
2023/12/24 08:35:11;;;;;;;1.80;1.05;;;;;;;8.28;100.00;100298.44;10461576;28;20461;-78
2023/12/24 08:40:12;;;;;;;1.08;0.60;;;;;;;8.32;100.00;100290.84;10481877;28;20068;-81
2023/12/24 08:45:13;;;;;;;1.65;0.90;;;;;;;8.34;100.00;100283.06;10500566;28;20044;-79
2023/12/24 08:50:13;;;;;;;0.70;0.60;;;;;;;8.34;100.00;100291.81;10491133;28;20051;-79
2023/12/24 08:55:15;;;;;;;1.88;0.80;;;;;;;8.37;100.00;100278.00;10475900;28;20575;-77
2023/12/24 09:00:16;;;;;;;0.50;0.30;;;;;;;8.45;100.00;100281.88;10492472;28;20043;-77
2023/12/24 09:05:18;;;;;;;0.90;0.60;;;;;;;8.47;100.00;100268.91;10467502;28;20051;-79
2023/12/24 09:10:19;;;;;;;0.50;0.30;;;;;;;8.49;100.00;100281.22;10424562;28;20056;-78
2023/12/24 09:15:19;;;;;;;0.35;0.20;;;;;;;8.51;100.00;100276.97;10442481;28;20491;-77
2023/12/24 09:20:20;;;;;;;1.05;0.50;;;;;;;8.54;100.00;100280.53;10441315;28;20132;-77
2023/12/24 09:25:20;;;;;;;3.35;0.82;;;;;;;8.57;100.00;100268.56;10420596;28;20097;-77
2023/12/24 09:30:21;;;;;;;1.33;0.45;;;;;;;8.59;100.00;100298.22;10422265;28;20087;-77
2023/12/24 09:35:22;;;;;;;0.82;0.50;;;;;;;8.63;100.00;100300.13;10437426;28;20143;-77
2023/12/24 09:40:22;;;;;;;0.90;0.45;;;;;;;8.69;100.00;100307.34;10437733;28;20127;-77
2023/12/24 09:45:22;;;;;;;1.55;0.95;;;;;;;8.69;100.00;100285.59;10426246;28;20136;-77
2023/12/24 09:50:23;;;;;;;4.28;2.53;;;;;;;8.71;100.00;100290.03;10431693;28;20468;-77
2023/12/24 09:55:23;;;;;;;6.47;3.13;;;;;;;8.75;100.00;100281.53;10434814;28;20166;-78
2023/12/24 10:00:24;;;;;;;7.88;3.08;;;;;;;8.75;100.00;100270.22;10448784;28;20090;-77
2023/12/24 10:05:24;;;;;;;1.27;1.15;;;;;;;8.79;100.00;100272.13;10433472;28;20121;-78
2023/12/24 10:10:29;;;;;;;2.35;1.17;;;;;;;8.77;100.00;100274.66;10438496;28;20048;-78
2023/12/24 10:15:32;;;;;;;6.55;1.95;;;;;;;8.76;100.00;100278.09;10388912;28;20041;-78
2023/12/24 10:20:32;;;;;;;1.58;0.88;;;;;;;8.82;100.00;100275.75;10485789;28;20044;-78
2023/12/24 10:25:33;;;;;;;1.77;1.05;;;;;;;8.85;100.00;100268.91;10494663;28;20428;-80
2023/12/24 10:30:33;;;;;;;1.60;0.80;;;;;;;8.86;100.00;100255.03;10485058;28;20131;-78
2023/12/24 10:35:35;;;;;;;2.60;1.60;;;;;;;8.87;100.00;100238.53;10473686;28;20569;-80
2023/12/24 10:40:35;;;;;;;5.43;0.95;;;;;;;8.91;100.00;100251.81;10500918;28;20085;-77
2023/12/24 10:45:36;;;;;;;2.20;1.67;;;;;;;8.91;100.00;100235.25;10510991;28;20040;-80
2023/12/24 10:50:36;;;;;;;1.52;1.05;;;;;;;8.95;100.00;100240.69;10491058;28;20127;-79
2023/12/24 10:55:37;;;;;;;3.63;2.42;;;;;;;9.00;100.00;100245.22;10507029;28;20043;-79
2023/12/24 11:00:37;;;;;;;2.50;1.00;;;;;;;9.03;100.00;100241.00;10500459;28;20091;-80
2023/12/24 11:05:45;;;;;;;4.70;1.50;;;;;;;9.09;100.00;100219.50;10415853;28;1250094;-81
2023/12/24 11:10:54;;;;;;;3.17;1.92;;;;;;;9.11;100.00;100223.97;10501873;28;20108;-78
2023/12/24 11:15:55;;;;;;;4.03;2.42;;;;;;;9.16;100.00;100224.16;10502200;28;20544;-77
2023/12/24 11:20:57;;;;;;;11.85;7.43;;;;;;;9.25;100.00;100211.50;10516655;28;20042;-78
2023/12/24 11:25:58;;;;;;;7.50;3.03;;;;;;;9.36;100.00;100211.94;10477979;28;20640;-78
2023/12/24 11:30:58;;;;;;;7.68;3.50;;;;;;;9.41;100.00;100204.31;10490633;28;20111;-77
2023/12/24 11:36:00;;;;;;;5.22;2.33;;;;;;;9.49;100.00;100210.75;10489760;28;20048;-76
2023/12/24 11:41:23;;;;;;;4.90;1.70;;;;;;;9.40;100.00;100179.91;10504957;28;20051;-77
2023/12/24 11:46:28;;;;;;;3.20;1.65;;;;;;;9.41;100.00;100178.19;10467227;28;20049;-77
2023/12/24 11:51:31;;;;;;;2.50;1.33;;;;;;;9.35;100.00;100184.03;10459861;28;20492;-76
2023/12/24 11:56:32;;;;;;;3.28;1.70;;;;;;;9.34;100.00;100192.72;10474000;28;20048;-79
2023/12/24 12:01:35;;;;;;;7.35;2.22;;;;;;;9.37;100.00;100194.56;10454716;28;20495;-76
2023/12/24 12:06:36;;;;;;;3.15;2.03;;;;;;;9.35;100.00;100180.56;10455832;28;20501;-78
2023/12/24 12:11:36;;;;;;;3.28;1.67;;;;;;;9.33;100.00;100170.03;10464363;28;20099;-77
2023/12/24 12:16:37;;;;;;;1.45;0.75;;;;;;;9.36;100.00;100161.44;10488288;28;20123;-78
2023/12/24 12:21:38;;;;;;;1.95;1.13;;;;;;;9.35;100.00;100154.44;10497805;28;20116;-77
2023/12/24 12:26:38;;;;;;;1.55;0.82;;;;;;;9.35;100.00;100152.72;10478784;28;20431;-78
2023/12/24 12:31:39;;;;;;;0.93;0.35;;;;;;;9.38;100.00;100141.50;10483949;28;20123;-78
2023/12/24 12:36:39;;;;;;;1.30;0.80;;;;;;;9.35;100.00;100133.56;10506634;28;20039;-77
2023/12/24 12:41:40;;;;;;;1.85;0.75;;;;;;;9.32;100.00;100136.03;10490750;28;20148;-78
2023/12/24 12:46:40;;;;;;;15.57;1.45;;;;;;;9.28;100.00;100119.34;10498752;28;20494;-79
2023/12/24 12:51:41;;;;;;;3.00;1.20;;;;;;;9.29;100.00;100109.81;10524432;27;20134;-78
2023/12/24 12:56:45;;;;;;;2.08;1.10;;;;;;;9.30;100.00;100114.19;10450191;28;20072;-78
2023/12/24 13:01:46;;;;;;;1.38;1.08;;;;;;;9.34;100.00;100103.03;10496260;28;20036;-78
2023/12/24 13:06:53;;;;;;;2.45;1.48;;;;;;;9.35;100.00;100105.69;10495911;28;20040;-78
2023/12/24 13:12:03;;;;;;;1.42;0.80;;;;;;;9.37;100.00;100096.22;10450422;28;20389;-78
2023/12/24 13:17:10;;;;;;;2.30;1.40;;;;;;;9.38;100.00;100098.00;10483369;28;20167;-79
2023/12/24 13:22:11;;;;;;;5.20;2.50;;;;;;;9.38;100.00;100098.00;10487737;28;20048;-78
2023/12/24 13:27:11;;;;;;;7.00;4.68;;;;;;;9.38;100.00;100098.00;10450498;28;20061;-78
2023/12/24 13:32:12;;;;;;;4.38;2.63;;;;;;;9.39;100.00;100097.16;10503757;28;20048;-78
2023/12/24 13:37:13;;;;;;;2.80;1.48;;;;;;;9.38;100.00;100092.75;10482617;28;20036;-78
2023/12/24 13:42:13;;;;;;;2.55;1.85;;;;;;;9.43;100.00;100084.22;10487743;28;20124;-78
2023/12/24 13:47:16;;;;;;;4.88;2.33;;;;;;;9.44;100.00;100092.13;10475315;28;20109;-78
2023/12/24 13:52:17;;;;;;;8.05;3.38;;;;;;;9.49;100.00;100101.03;10497112;28;20052;-79
2023/12/24 13:57:18;;;;;;;6.47;3.17;;;;;;;9.53;100.00;100084.66;10511977;28;20055;-80
2023/12/24 14:02:18;;;;;;;6.60;4.28;;;;;;;9.56;100.00;100089.09;10499161;28;20500;-78
2023/12/24 14:07:20;;;;;;;7.45;3.97;;;;;;;9.61;100.00;100092.78;10493149;28;20048;-79
2023/12/24 14:12:21;;;;;;;7.07;4.85;;;;;;;9.63;100.00;100085.91;10493386;28;20034;-79
2023/12/24 14:17:22;;;;;;;7.78;4.05;;;;;;;9.66;100.00;100070.34;10470973;28;20032;-79
2023/12/24 14:22:23;;;;;;;4.78;3.17;;;;;;;9.69;100.00;100083.53;10494874;28;20087;-80
2023/12/24 14:27:25;;;;;;;7.45;3.70;;;;;;;9.76;100.00;100079.44;10491468;28;20095;-80
2023/12/24 14:32:26;;;;;;;5.57;3.25;;;;;;;9.83;100.00;100088.38;10481993;28;20098;-80
2023/12/24 14:37:26;;;;;;;5.80;3.42;;;;;;;9.90;100.00;100053.81;10481798;28;20132;-81
2023/12/24 14:42:28;;;;;;;6.15;4.05;;;;;;;9.96;100.00;100055.78;10488353;28;20101;-80
2023/12/24 14:47:29;;;;;;;7.72;3.20;;;;;;;10.03;100.00;100051.66;10495898;28;20052;-79
2023/12/24 14:52:29;;;;;;;4.07;2.42;;;;;;;10.09;100.00;100044.94;10495686;28;20037;-81
2023/12/24 14:57:30;;;;;;;5.28;3.05;;;;;;;10.17;100.00;100042.59;10515090;28;20568;-81
2023/12/24 15:02:30;;;;;;;3.53;2.30;;;;;;;10.21;100.00;100025.28;10496500;28;20058;-79
2023/12/24 15:07:33;;;;;;;7.05;2.97;;;;;;;10.26;100.00;100035.06;10496644;28;20032;-79
2023/12/24 15:12:34;;;;;;;5.05;3.13;;;;;;;10.26;100.00;100019.38;10502483;28;20102;-80
2023/12/24 15:17:34;;;;;;;4.25;2.83;;;;;;;10.28;100.00;100015.09;10469244;28;20560;-80
2023/12/24 15:22:35;;;;;;;4.53;2.70;;;;;;;10.37;100.00;100003.16;10449840;28;20117;-80
2023/12/24 15:27:35;;;;;;;3.55;1.60;;;;;;;10.44;100.00;99989.50;10436729;28;20029;-80
2023/12/24 15:32:36;;;;;;;4.53;2.63;;;;;;;10.43;100.00;99965.06;10423144;28;20079;-82
2023/12/24 15:37:36;;;;;;;12.48;3.47;;;;;;;10.42;100.00;99983.31;10465371;28;20044;-78
2023/12/24 15:42:37;;;;;;;4.72;2.20;;;;;;;10.45;100.00;99975.56;10520342;27;20119;-78
2023/12/24 15:47:37;;;;;;;3.92;2.13;;;;;;;10.40;100.00;99969.31;10498719;28;20052;-78
2023/12/24 15:52:38;;;;;;;5.30;3.05;;;;;;;10.28;100.00;99981.09;10494112;28;20143;-79
2023/12/24 15:57:39;;;;;;;8.13;2.65;;;;;;;10.23;100.00;100003.56;10472271;28;20679;-78
2023/12/24 16:02:41;;;;;;;5.32;2.72;;;;;;;10.20;100.00;100008.69;10489411;28;20523;-78
2023/12/24 16:07:41;;;;;;;6.97;3.95;;;;;;;10.23;100.00;100019.25;10485930;28;20033;-78
2023/12/24 16:12:42;;;;;;;7.22;3.63;;;;;;;10.24;100.00;100010.59;10489166;28;20403;-77
2023/12/24 16:17:42;;;;;;;7.50;3.63;;;;;;;10.24;100.00;100021.03;10508370;28;20131;-80
2023/12/24 16:22:43;;;;;;;5.82;3.70;;;;;;;10.20;100.00;100018.28;10479785;28;20040;-78
2023/12/24 16:27:44;;;;;;;7.50;4.00;;;;;;;10.12;100.00;100039.81;10482527;28;20120;-79
2023/12/24 16:32:45;;;;;;;8.13;3.95;;;;;;;10.10;100.00;100036.25;10487692;28;20136;-79
2023/12/24 16:37:46;;;;;;;8.80;4.88;;;;;;;10.04;100.00;100045.59;10467480;28;20041;-79
2023/12/24 16:42:47;;;;;;;12.00;6.28;;;;;;;9.99;100.00;100050.66;10502469;28;20503;-79
2023/12/24 16:47:47;;;;;;;8.57;5.70;;;;;;;10.00;100.00;100062.91;10499244;28;20109;-77
2023/12/24 16:52:48;;;;;;;9.95;4.78;;;;;;;10.04;100.00;100056.03;10488153;28;20457;-78
2023/12/24 16:57:48;;;;;;;8.80;4.53;;;;;;;10.01;100.00;100058.53;10491875;28;20411;-78
2023/12/24 17:02:50;;;;;;;8.68;5.00;;;;;;;10.01;100.00;100063.78;10479956;28;20127;-81
2023/12/24 17:07:50;;;;;;;8.52;4.35;;;;;;;9.99;100.00;100074.19;10499914;28;20052;-81
2023/12/24 17:12:51;;;;;;;8.43;5.20;;;;;;;10.02;100.00;100089.09;10489074;28;20032;-78
2023/12/24 17:17:52;;;;;;;11.80;5.38;;;;;;;9.96;100.00;100103.69;10497621;28;20495;-79
2023/12/24 17:22:53;;;;;;;6.87;4.40;;;;;;;9.95;100.00;100114.13;10491111;28;20400;-78
2023/12/24 17:27:53;;;;;;;9.75;4.57;;;;;;;9.93;100.00;100115.78;10500941;28;20127;-78
2023/12/24 17:32:54;;;;;;;14.07;4.82;;;;;;;9.90;100.00;100124.38;10480723;28;20119;-79
2023/12/24 17:37:54;;;;;;;17.30;4.72;;;;;;;9.85;100.00;100141.59;10485683;28;20087;-79
2023/12/24 17:42:56;;;;;;;8.90;5.30;;;;;;;9.81;100.00;100150.16;10477821;28;20128;-79
2023/12/24 17:47:56;;;;;;;10.70;5.13;;;;;;;9.80;100.00;100169.28;10471156;28;20123;-80
2023/12/24 17:52:57;;;;;;;14.13;4.63;;;;;;;9.78;100.00;100179.69;10496515;28;20121;-79
2023/12/24 17:57:57;;;;;;;12.98;4.72;;;;;;;9.79;100.00;100191.94;10505258;28;20124;-79
2023/12/24 18:02:57;;;;;;;16.30;5.05;;;;;;;9.83;100.00;100192.94;10482725;28;20127;-79
2023/12/24 18:07:58;;;;;;;15.38;4.18;;;;;;;9.88;100.00;100182.66;10499344;28;20123;-81
2023/12/24 18:12:59;;;;;;;8.98;4.03;;;;;;;9.89;100.00;100181.84;10496480;28;20123;-81
2023/12/24 18:17:59;;;;;;;14.27;4.63;;;;;;;9.93;100.00;100168.06;10499688;28;20051;-80
2023/12/24 18:23:00;;;;;;;12.98;3.95;;;;;;;9.98;100.00;100150.84;10465962;28;20407;-79
2023/12/24 18:28:00;;;;;;;15.25;7.13;;;;;;;10.06;100.00;100119.75;10504048;28;20124;-79
2023/12/24 18:33:01;;;;;;;14.70;5.30;;;;;;;10.03;100.00;100125.75;10509610;28;20136;-79
2023/12/24 18:38:05;;;;;;;14.32;4.70;;;;;;;10.02;100.00;100126.59;10478450;28;21986;-80
2023/12/24 18:43:05;;;;;;;12.85;6.35;;;;;;;9.91;100.00;100125.28;10493804;28;20089;-79
2023/12/24 18:48:06;;;;;;;17.48;6.40;;;;;;;9.82;100.00;100126.72;10499870;28;20086;-79
2023/12/24 18:53:07;;;;;;;19.73;6.28;;;;;;;9.80;100.00;100151.00;10496865;28;20393;-79
2023/12/24 18:58:07;;;;;;;16.83;6.60;;;;;;;9.80;100.00;100164.97;10499155;28;20123;-79
2023/12/24 19:03:08;;;;;;;13.52;5.57;;;;;;;9.89;100.00;100174.88;10485123;28;20139;-80
2023/12/24 19:08:08;;;;;;;12.30;5.15;;;;;;;9.86;100.00;100164.28;10473098;28;20062;-80
2023/12/24 19:13:09;;;;;;;17.42;7.03;;;;;;;9.79;100.00;100154.44;10501344;28;20131;-79
2023/12/24 19:18:09;;;;;;;12.73;4.97;;;;;;;9.75;100.00;100158.66;10499329;28;20135;-79
2023/12/24 19:23:10;;;;;;;14.35;5.38;;;;;;;9.79;100.00;100178.88;10506537;28;20474;-78
2023/12/24 19:28:10;;;;;;;10.52;4.00;;;;;;;9.79;100.00;100191.03;10499535;28;20116;-78
2023/12/24 19:33:11;;;;;;;17.88;6.20;;;;;;;9.79;100.00;100202.38;10496092;28;20124;-78
2023/12/24 19:38:11;;;;;;;16.17;5.22;;;;;;;9.72;100.00;100202.06;10501926;28;20119;-77
2023/12/24 19:43:12;;;;;;;13.32;3.85;;;;;;;9.62;100.00;100224.31;10509759;28;20075;-79
2023/12/24 19:48:14;;;;;;;19.10;4.75;;;;;;;9.57;100.00;100216.28;10490730;28;20044;-78
2023/12/24 19:53:14;;;;;;;14.55;4.65;;;;;;;9.50;100.00;100236.06;10501857;28;20453;-79
2023/12/24 19:58:15;;;;;;;15.82;4.60;;;;;;;9.41;100.00;100246.09;10494793;28;20044;-79
2023/12/24 20:03:15;;;;;;;16.67;4.88;;;;;;;9.38;100.00;100261.66;10496521;28;20119;-80
2023/12/24 20:08:16;;;;;;;9.68;4.88;;;;;;;9.37;100.00;100296.44;10505106;28;20131;-78
2023/12/24 20:13:17;;;;;;;11.23;4.80;;;;;;;9.35;100.00;100298.09;10493777;28;20132;-80
2023/12/24 20:18:18;;;;;;;10.50;4.07;;;;;;;9.32;100.00;100305.78;10480871;28;20123;-80
2023/12/24 20:23:18;;;;;;;11.77;4.10;;;;;;;9.30;100.00;100313.53;10498441;28;20052;-79
2023/12/24 20:28:19;;;;;;;10.00;4.05;;;;;;;9.30;100.00;100320.50;10477555;28;20028;-80
2023/12/24 20:33:20;;;;;;;9.43;3.90;;;;;;;9.27;100.00;100321.22;10482180;28;20124;-80
2023/12/24 20:38:20;;;;;;;9.25;4.47;;;;;;;9.28;100.00;100324.75;10490931;28;20548;-79
2023/12/24 20:43:21;;;;;;;13.30;5.80;;;;;;;9.25;100.00;100328.09;10435020;28;20037;-79
2023/12/24 20:48:21;;;;;;;16.73;4.32;;;;;;;9.24;100.00;100328.94;10480385;28;20120;-80
2023/12/24 20:53:22;;;;;;;7.30;2.97;;;;;;;9.23;100.00;100321.91;10466143;28;20044;-80
2023/12/24 20:58:23;;;;;;;14.40;4.18;;;;;;;9.23;100.00;100327.16;10494456;28;20517;-79
2023/12/24 21:03:23;;;;;;;11.55;5.60;;;;;;;9.22;100.00;100330.59;10491657;28;20467;-79
2023/12/24 21:08:24;;;;;;;11.52;4.22;;;;;;;9.24;100.00;100328.94;10489372;28;20134;-79
2023/12/24 21:13:24;;;;;;;15.07;4.35;;;;;;;9.23;100.00;100337.59;10502777;28;20150;-78
2023/12/24 21:18:25;;;;;;;9.82;3.80;;;;;;;9.22;100.00;100346.25;10482677;28;20056;-79
2023/12/24 21:23:26;;;;;;;9.93;4.43;;;;;;;9.23;100.00;100350.66;10404180;28;20067;-80
2023/12/24 21:28:26;;;;;;;10.55;4.88;;;;;;;9.24;100.00;100362.88;10419887;28;20057;-82
2023/12/24 21:33:27;;;;;;;8.55;4.00;;;;;;;9.25;100.00;100368.19;10441886;28;20036;-80
2023/12/24 21:38:29;;;;;;;8.70;4.55;;;;;;;9.29;100.00;100356.13;10433744;28;20128;-80
2023/12/24 21:43:29;;;;;;;8.70;3.90;;;;;;;9.30;100.00;100372.72;10434602;28;20500;-80
2023/12/24 21:48:30;;;;;;;8.73;3.88;;;;;;;9.33;100.00;100380.69;10462320;28;20041;-79
2023/12/24 21:53:30;;;;;;;10.10;5.28;;;;;;;9.34;100.00;100383.34;10505177;28;20044;-79
2023/12/24 21:58:31;;;;;;;9.93;4.72;;;;;;;9.33;100.00;100384.19;10483864;28;20135;-80
2023/12/24 22:03:31;;;;;;;9.85;5.05;;;;;;;9.39;100.00;100375.75;10484445;28;20039;-79
2023/12/24 22:08:32;;;;;;;24.55;5.13;;;;;;;9.39;100.00;100391.41;10485816;28;20040;-79
2023/12/24 22:13:36;;;;;;;10.15;4.13;;;;;;;9.39;100.00;100366.16;10485009;28;20135;-80
2023/12/24 22:18:36;;;;;;;11.10;4.95;;;;;;;9.40;100.00;100360.13;10486364;28;20032;-81
2023/12/24 22:23:37;;;;;;;6.80;3.97;;;;;;;9.42;100.00;100368.03;10486465;28;20068;-80
2023/12/24 22:28:37;;;;;;;9.35;3.72;;;;;;;9.42;100.00;100360.22;10480963;28;20105;-80
2023/12/24 22:33:38;;;;;;;10.88;3.90;;;;;;;9.42;100.00;100354.97;10457009;28;20488;-80
2023/12/24 22:38:38;;;;;;;7.45;4.43;;;;;;;9.43;100.00;100359.38;10493436;28;20040;-79
2023/12/24 22:43:39;;;;;;;7.72;3.30;;;;;;;9.42;100.00;100361.91;10485756;28;20451;-79
2023/12/24 22:48:39;;;;;;;5.07;2.88;;;;;;;9.40;100.00;100354.91;10496583;28;20101;-78
2023/12/24 22:53:41;;;;;;;6.88;3.65;;;;;;;9.45;100.00;100343.75;10507336;28;20575;-79
2023/12/24 22:58:42;;;;;;;7.43;3.00;;;;;;;9.47;100.00;100358.69;10488080;28;20041;-79